Observation data for Brownfield on 06/16/2019      Previous  Date  Next       Current Mesonet Observations  Soil Data  Daily Summary Page  Observations in Plain Language
KBWS 160500Z 06012G17KT 22/10 A2988 RMK A01 T02200097  RH  046%=      5-min Rain = 0
KBWS 160505Z 06011G17KT 22/10 A2988 RMK A01 T02190097  RH  047%=      5-min Rain = 0
KBWS 160510Z 06012KT 22/10 A2988 RMK A01 T02200097  RH  046%=      5-min Rain = 0
KBWS 160515Z 07013KT 22/09 A2988 RMK A01 T02200094  RH  045%=      5-min Rain = 0
KBWS 160520Z 07010KT 22/09 A2988 RMK A01 T02200093  RH  045%=      5-min Rain = 0
KBWS 160525Z 08010KT 22/09 A2988 RMK A01 T02190088  RH  044%=      5-min Rain = 0
KBWS 160530Z 09009KT 22/09 A2988 RMK A01 T02190087  RH  043%=      5-min Rain = 0
KBWS 160535Z 08010G15KT 22/09 A2988 RMK A01 T02170086  RH  044%=      5-min Rain = 0
KBWS 160540Z 08010KT 22/09 A2987 RMK A01 T02180086  RH  044%=      5-min Rain = 0
KBWS 160545Z 08009KT 22/09 A2987 RMK A01 T02150087  RH  045%=      5-min Rain = 0
KBWS 160550Z 07010KT 21/09 A2988 RMK A01 T02140090  RH  046%=      5-min Rain = 0
KBWS 160555Z 00018G25KT 22/09 A2991 RMK A01 T02160089  RH  045%=      5-min Rain = 0
KBWS 160600Z 04014G20KT 22/10 A299 RMK A01 T02210096  RH  046%=      5-min Rain = 0
KBWS 160605Z 02014G20KT 22/09 A2991 RMK A01 T02220092  RH  044%=      5-min Rain = 0
KBWS 160610Z 05011G18KT 21/09 A299 RMK A01 T02140094  RH  047%=      5-min Rain = 0
KBWS 160615Z 04010G15KT 21/10 A299 RMK A01 T02130095  RH  048%=      5-min Rain = 0
KBWS 160620Z 00015G21KT 21/09 A2991 RMK A01 T02130093  RH  047%=      5-min Rain = 0
KBWS 160625Z 06011KT 22/10 A2989 RMK A01 T02150096  RH  048%=      5-min Rain = 0
KBWS 160630Z 04010KT 21/10 A2989 RMK A01 T02140097  RH  048%=      5-min Rain = 0
KBWS 160635Z 01010KT 21/10 A299 RMK A01 T02130095  RH  048%=      5-min Rain = 0
KBWS 160640Z 03012KT 21/10 A299 RMK A01 T02110095  RH  048%=      5-min Rain = 0
KBWS 160645Z 04010KT 21/10 A2989 RMK A01 T02080096  RH  049%=      5-min Rain = 0
KBWS 160650Z 03010KT 21/10 A299 RMK A01 T02070096  RH  050%=      5-min Rain = 0
KBWS 160655Z 03008KT 20/10 A299 RMK A01 T02040097  RH  051%=      5-min Rain = 0
KBWS 160700Z 04008KT 20/10 A299 RMK A01 T02030098  RH  051%=      5-min Rain = 0
KBWS 160705Z 02009KT 20/10 A2991 RMK A01 T02010098  RH  052%=      5-min Rain = 0
KBWS 160710Z 03009KT 20/10 A2991 RMK A01 T02000099  RH  053%=      5-min Rain = 0
KBWS 160715Z 03009KT 20/10 A2991 RMK A01 T01990099  RH  053%=      5-min Rain = 0
KBWS 160720Z 02011KT 20/10 A2991 RMK A01 T02000099  RH  053%=      5-min Rain = 0
KBWS 160725Z 03010KT 20/10 A2991 RMK A01 T02000100  RH  053%=      5-min Rain = 0
KBWS 160730Z 04010KT 20/10 A2991 RMK A01 T01990101  RH  054%=      5-min Rain = 0
KBWS 160735Z 04010KT 20/10 A2991 RMK A01 T02000101  RH  054%=      5-min Rain = 0
KBWS 160740Z 04010KT 20/10 A2992 RMK A01 T02000101  RH  054%=      5-min Rain = 0
KBWS 160745Z 04010KT 20/10 A2992 RMK A01 T02020101  RH  053%=      5-min Rain = 0
KBWS 160750Z 05010KT 20/10 A2992 RMK A01 T02010103  RH  054%=      5-min Rain = 0
KBWS 160755Z 04010KT 20/10 A2992 RMK A01 T01980102  RH  055%=      5-min Rain = 0
KBWS 160800Z 04009KT 20/10 A2992 RMK A01 T01970102  RH  055%=      5-min Rain = 0
KBWS 160805Z 03010KT 20/10 A2992 RMK A01 T01980100  RH  054%=      5-min Rain = 0
KBWS 160810Z 04010KT 20/10 A2992 RMK A01 T01980101  RH  054%=      5-min Rain = 0
KBWS 160815Z 04010KT 20/10 A2992 RMK A01 T01980101  RH  054%=      5-min Rain = 0
KBWS 160820Z 05010KT 20/10 A2991 RMK A01 T01960102  RH  055%=      5-min Rain = 0
KBWS 160825Z 06009KT 20/10 A2991 RMK A01 T01970104  RH  056%=      5-min Rain = 0
KBWS 160830Z 07010G15KT 20/11 A2991 RMK A01 T01970106  RH  057%=      5-min Rain = 0
KBWS 160835Z 06012KT 20/11 A2991 RMK A01 T01990107  RH  056%=      5-min Rain = 0
KBWS 160840Z 07013KT 20/11 A2991 RMK A01 T01990107  RH  056%=      5-min Rain = 0
KBWS 160845Z 07012G17KT 20/11 A2991 RMK A01 T01990106  RH  056%=      5-min Rain = 0
KBWS 160850Z 07015G20KT 20/11 A2991 RMK A01 T01990108  RH  057%=      5-min Rain = 0
KBWS 160855Z 07015KT 20/11 A2991 RMK A01 T01990107  RH  056%=      5-min Rain = 0
KBWS 160900Z 08015KT 20/11 A2991 RMK A01 T01990105  RH  056%=      5-min Rain = 0
KBWS 160905Z 07015KT 20/11 A2991 RMK A01 T01990106  RH  056%=      5-min Rain = 0
KBWS 160910Z 08015KT 20/11 A299 RMK A01 T01990105  RH  055%=      5-min Rain = 0
KBWS 160915Z 08015KT 20/11 A299 RMK A01 T01990105  RH  055%=      5-min Rain = 0
KBWS 160920Z 08013KT 20/10 A299 RMK A01 T01980104  RH  056%=      5-min Rain = 0
KBWS 160925Z 08013G18KT 20/10 A299 RMK A01 T01980104  RH  056%=      5-min Rain = 0
KBWS 160930Z 08012G18KT 20/11 A2991 RMK A01 T01980105  RH  056%=      5-min Rain = 0
KBWS 160935Z 08013KT 20/11 A2991 RMK A01 T01980107  RH  057%=      5-min Rain = 0
KBWS 160940Z 08014KT 20/11 A2992 RMK A01 T01980108  RH  057%=      5-min Rain = 0
KBWS 160945Z 08013KT 20/11 A2992 RMK A01 T01970109  RH  058%=      5-min Rain = 0
KBWS 160950Z 08013G18KT 20/11 A2992 RMK A01 T01970109  RH  058%=      5-min Rain = 0
KBWS 160955Z 08013KT 20/11 A2992 RMK A01 T01960109  RH  058%=      5-min Rain = 0
KBWS 161000Z 08012KT 20/11 A2992 RMK A01 T01950108  RH  058%=      5-min Rain = 0
KBWS 161005Z 08011KT 19/11 A2992 RMK A01 T01940107  RH  058%=      5-min Rain = 0
KBWS 161010Z 08010KT 20/11 A2992 RMK A01 T01950106  RH  058%=      5-min Rain = 0
KBWS 161015Z 08013KT 20/11 A2992 RMK A01 T01950105  RH  057%=      5-min Rain = 0
KBWS 161020Z 08013KT 20/10 A2992 RMK A01 T01950104  RH  056%=      5-min Rain = 0
KBWS 161025Z 08012G17KT 19/10 A2992 RMK A01 T01940104  RH  057%=      5-min Rain = 0
KBWS 161030Z 08012KT 19/10 A2993 RMK A01 T01940104  RH  057%=      5-min Rain = 0
KBWS 161035Z 07011KT 20/11 A2993 RMK A01 T01950105  RH  057%=      5-min Rain = 0
KBWS 161040Z 07011KT 20/11 A2993 RMK A01 T01950107  RH  058%=      5-min Rain = 0
KBWS 161045Z 07011KT 19/11 A2993 RMK A01 T01940105  RH  057%=      5-min Rain = 0
KBWS 161050Z 08010KT 19/10 A2993 RMK A01 T01920103  RH  057%=      5-min Rain = 0
KBWS 161055Z 07010KT 19/10 A2993 RMK A01 T01910103  RH  058%=      5-min Rain = 0
KBWS 161100Z 08009KT 19/10 A2993 RMK A01 T01900104  RH  059%=      5-min Rain = 0
KBWS 161105Z 08010KT 19/10 A2993 RMK A01 T01880104  RH  059%=      5-min Rain = 0
KBWS 161110Z 08008KT 19/11 A2993 RMK A01 T01870106  RH  060%=      5-min Rain = 0
KBWS 161115Z 07009KT 19/11 A2993 RMK A01 T01880107  RH  060%=      5-min Rain = 0
KBWS 161120Z 07009KT 19/11 A2993 RMK A01 T01890106  RH  060%=      5-min Rain = 0
KBWS 161125Z 08009KT 19/11 A2993 RMK A01 T01900105  RH  059%=      5-min Rain = 0
KBWS 161130Z 08008KT 19/10 A2993 RMK A01 T01910104  RH  058%=      5-min Rain = 0
KBWS 161135Z 08009KT 19/10 A2993 RMK A01 T01910104  RH  058%=      5-min Rain = 0
KBWS 161140Z 07009KT 19/11 A2993 RMK A01 T01920105  RH  058%=      5-min Rain = 0
KBWS 161145Z 07009KT 19/11 A2994 RMK A01 T01920105  RH  058%=      5-min Rain = 0
KBWS 161150Z 06008KT 19/11 A2994 RMK A01 T01930107  RH  058%=      5-min Rain = 0
KBWS 161155Z 06010KT 19/11 A2994 RMK A01 T01930105  RH  058%=      5-min Rain = 0
KBWS 161200Z 05009KT 19/10 A2995 RMK A01 T01940104  RH  057%=      5-min Rain = 0
KBWS 161205Z 05010KT 20/10 A2995 RMK A01 T01960103  RH  056%=      5-min Rain = 0
KBWS 161210Z 06010KT 20/11 A2995 RMK A01 T01970107  RH  057%=      5-min Rain = 0
KBWS 161215Z 06010KT 20/11 A2995 RMK A01 T01970106  RH  056%=      5-min Rain = 0
KBWS 161220Z 06010KT 20/11 A2995 RMK A01 T01980107  RH  057%=      5-min Rain = 0
KBWS 161225Z 07010KT 20/10 A2994 RMK A01 T01970104  RH  056%=      5-min Rain = 0
KBWS 161230Z 07010KT 20/10 A2994 RMK A01 T01970103  RH  055%=      5-min Rain = 0
KBWS 161235Z 06011KT 20/11 A2995 RMK A01 T01990106  RH  056%=      5-min Rain = 0
KBWS 161240Z 06010KT 20/11 A2995 RMK A01 T02000109  RH  057%=      5-min Rain = 0
KBWS 161245Z 06011KT 20/11 A2995 RMK A01 T01990108  RH  057%=      5-min Rain = 0
KBWS 161250Z 06010KT 20/11 A2995 RMK A01 T01990108  RH  057%=      5-min Rain = 0
KBWS 161255Z 07010KT 20/11 A2995 RMK A01 T01990108  RH  057%=      5-min Rain = 0
KBWS 161300Z 06009KT 20/11 A2995 RMK A01 T01990109  RH  057%=      5-min Rain = 0
KBWS 161305Z 07010KT 20/11 A2995 RMK A01 T02000109  RH  057%=      5-min Rain = 0
KBWS 161310Z 07011KT 20/11 A2995 RMK A01 T02000107  RH  056%=      5-min Rain = 0
KBWS 161315Z 07011KT 20/11 A2995 RMK A01 T02010109  RH  056%=      5-min Rain = 0
KBWS 161320Z 07009KT 20/11 A2995 RMK A01 T02010111  RH  057%=      5-min Rain = 0
KBWS 161325Z 07009KT 20/11 A2995 RMK A01 T02020111  RH  057%=      5-min Rain = 0
KBWS 161330Z 07009KT 20/11 A2996 RMK A01 T02040109  RH  055%=      5-min Rain = 0
KBWS 161335Z 07008KT 21/11 A2996 RMK A01 T02070111  RH  055%=      5-min Rain = 0
KBWS 161340Z 07009KT 21/11 A2996 RMK A01 T02100111  RH  054%=      5-min Rain = 0
KBWS 161345Z 07009KT 21/11 A2997 RMK A01 T02130112  RH  053%=      5-min Rain = 0
KBWS 161350Z 07010KT 21/11 A2997 RMK A01 T02140113  RH  053%=      5-min Rain = 0
KBWS 161355Z 06011KT 21/11 A2997 RMK A01 T02130112  RH  053%=      5-min Rain = 0
KBWS 161400Z 06011KT 21/11 A2997 RMK A01 T02140113  RH  054%=      5-min Rain = 0
KBWS 161405Z 06012KT 21/11 A2998 RMK A01 T02140112  RH  053%=      5-min Rain = 0
KBWS 161410Z 07010KT 22/12 A2998 RMK A01 T02160116  RH  054%=      5-min Rain = 0
KBWS 161415Z 07010KT 22/12 A2998 RMK A01 T02170115  RH  053%=      5-min Rain = 0
KBWS 161420Z 08010KT 22/11 A2998 RMK A01 T02200114  RH  052%=      5-min Rain = 0
KBWS 161425Z 07010KT 22/12 A2998 RMK A01 T02200115  RH  052%=      5-min Rain = 0
KBWS 161430Z 06010KT 22/12 A2998 RMK A01 T02230115  RH  051%=      5-min Rain = 0
KBWS 161435Z 07011KT 23/12 A2998 RMK A01 T02250116  RH  051%=      5-min Rain = 0
KBWS 161440Z 08010KT 22/11 A2998 RMK A01 T02230113  RH  051%=      5-min Rain = 0
KBWS 161445Z 07009KT 23/12 A2998 RMK A01 T02250116  RH  051%=      5-min Rain = 0
KBWS 161450Z 07010KT 23/12 A2998 RMK A01 T02280118  RH  051%=      5-min Rain = 0
KBWS 161455Z 07009KT 23/12 A2998 RMK A01 T02270118  RH  051%=      5-min Rain = 0
KBWS 161500Z 07010KT 23/12 A2998 RMK A01 T02290117  RH  050%=      5-min Rain = 0
KBWS 161505Z 06009G14KT 23/12 A2998 RMK A01 T02310120  RH  050%=      5-min Rain = 0
KBWS 161510Z 06009KT 23/12 A2998 RMK A01 T02290119  RH  051%=      5-min Rain = 0
KBWS 161515Z 05010KT 23/12 A2998 RMK A01 T02270119  RH  051%=      5-min Rain = 0
KBWS 161520Z 05010KT 23/12 A2998 RMK A01 T02280118  RH  051%=      5-min Rain = 0
KBWS 161525Z 04009KT 23/12 A2998 RMK A01 T02300120  RH  051%=      5-min Rain = 0
KBWS 161530Z 05009KT 23/12 A2998 RMK A01 T02330119  RH  050%=      5-min Rain = 0
KBWS 161535Z 05010KT 23/12 A2998 RMK A01 T02330119  RH  050%=      5-min Rain = 0
KBWS 161540Z 05012KT 23/12 A2998 RMK A01 T02320119  RH  050%=      5-min Rain = 0
KBWS 161545Z 04010KT 23/12 A2998 RMK A01 T02340119  RH  049%=      5-min Rain = 0
KBWS 161550Z 05011KT 24/12 A2998 RMK A01 T02380119  RH  048%=      5-min Rain = 0
KBWS 161555Z 05012KT 24/12 A2998 RMK A01 T02380118  RH  048%=      5-min Rain = 0
KBWS 161600Z 05012KT 24/12 A2998 RMK A01 T02400119  RH  047%=      5-min Rain = 0
KBWS 161605Z 05013KT 24/12 A2998 RMK A01 T02400119  RH  047%=      5-min Rain = 0
KBWS 161610Z 06013KT 24/12 A2998 RMK A01 T02430118  RH  046%=      5-min Rain = 0
KBWS 161615Z 05014KT 25/12 A2998 RMK A01 T02470118  RH  045%=      5-min Rain = 0
KBWS 161620Z 05012G17KT 25/12 A2998 RMK A01 T02480119  RH  045%=      5-min Rain = 0
KBWS 161625Z 05014KT 25/12 A2998 RMK A01 T02510121  RH  045%=      5-min Rain = 0
KBWS 161630Z 05012KT 25/12 A2998 RMK A01 T02480120  RH  046%=      5-min Rain = 0
KBWS 161635Z 04013G18KT 25/12 A2998 RMK A01 T02500122  RH  046%=      5-min Rain = 0
KBWS 161640Z 04013G18KT 25/12 A2999 RMK A01 T02470122  RH  046%=      5-min Rain = 0
KBWS 161645Z 04014G19KT 25/12 A2999 RMK A01 T02450120  RH  047%=      5-min Rain = 0
KBWS 161650Z 05014G21KT 24/12 A2999 RMK A01 T02440121  RH  047%=      5-min Rain = 0
KBWS 161655Z 05012G17KT 25/12 A2999 RMK A01 T02470121  RH  046%=      5-min Rain = 0
KBWS 161700Z 05013G19KT 25/12 A2999 RMK A01 T02450121  RH  047%=      5-min Rain = 0
KBWS 161705Z 04012G17KT 25/12 A2999 RMK A01 T02490121  RH  046%=      5-min Rain = 0
KBWS 161710Z 04014G19KT 25/12 A30 RMK A01 T02470119  RH  046%=      5-min Rain = 0
KBWS 161715Z 05012G18KT 24/12 A30 RMK A01 T02440118  RH  046%=      5-min Rain = 0
KBWS 161720Z 06013KT 24/12 A30 RMK A01 T02430120  RH  047%=      5-min Rain = 0
KBWS 161725Z 07013KT 24/12 A2999 RMK A01 T02430120  RH  047%=      5-min Rain = 0
KBWS 161730Z 04011KT 24/12 A30 RMK A01 T02430118  RH  046%=      5-min Rain = 0
KBWS 161735Z 06012KT 25/12 A30 RMK A01 T02460118  RH  046%=      5-min Rain = 0
KBWS 161740Z 05011G17KT 25/12 A30 RMK A01 T02470118  RH  045%=      5-min Rain = 0
KBWS 161745Z 07011G16KT 25/12 A2999 RMK A01 T02530119  RH  044%=      5-min Rain = 0
KBWS 161750Z 06011KT 25/12 A2999 RMK A01 T02540116  RH  043%=      5-min Rain = 0
KBWS 161755Z 06011G16KT 25/12 A2999 RMK A01 T02500116  RH  044%=      5-min Rain = 0
KBWS 161800Z 06013KT 25/12 A2999 RMK A01 T02540119  RH  044%=      5-min Rain = 0
KBWS 161805Z 04011G17KT 26/12 A2999 RMK A01 T02590119  RH  042%=      5-min Rain = 0
KBWS 161810Z 04012KT 26/12 A2999 RMK A01 T02620117  RH  041%=      5-min Rain = 0
KBWS 161815Z 05012G17KT 26/12 A2999 RMK A01 T02620119  RH  042%=      5-min Rain = 0
KBWS 161820Z 06011G18KT 26/12 A2999 RMK A01 T02630119  RH  041%=      5-min Rain = 0
KBWS 161825Z 07011G18KT 26/12 A2998 RMK A01 T02640119  RH  041%=      5-min Rain = 0
KBWS 161830Z 05010G16KT 27/12 A2998 RMK A01 T02700120  RH  040%=      5-min Rain = 0
KBWS 161835Z 05012KT 27/12 A2998 RMK A01 T02710118  RH  039%=      5-min Rain = 0
KBWS 161840Z 06008G14KT 27/12 A2998 RMK A01 T02700117  RH  039%=      5-min Rain = 0
KBWS 161845Z 05010G19KT 27/12 A2998 RMK A01 T02730120  RH  039%=      5-min Rain = 0
KBWS 161850Z 06011G16KT 27/12 A2998 RMK A01 T02740119  RH  039%=      5-min Rain = 0
KBWS 161855Z 06009G14KT 28/12 A2998 RMK A01 T02750119  RH  039%=      5-min Rain = 0
KBWS 161900Z 05010G18KT 28/12 A2997 RMK A01 T02760117  RH  038%=      5-min Rain = 0
KBWS 161905Z 03010KT 28/12 A2997 RMK A01 T02780118  RH  038%=      5-min Rain = 0
KBWS 161910Z 05010KT 28/12 A2997 RMK A01 T02760117  RH  038%=      5-min Rain = 0
KBWS 161915Z 05011G19KT 28/12 A2997 RMK A01 T02750117  RH  038%=      5-min Rain = 0
KBWS 161920Z 06011G17KT 27/12 A2997 RMK A01 T02700117  RH  039%=      5-min Rain = 0
KBWS 161925Z 06010G16KT 27/12 A2997 RMK A01 T02720117  RH  039%=      5-min Rain = 0
KBWS 161930Z 06009KT 28/12 A2996 RMK A01 T02770118  RH  038%=      5-min Rain = 0
KBWS 161935Z 04008G17KT 28/12 A2996 RMK A01 T02800118  RH  037%=      5-min Rain = 0
KBWS 161940Z 06007KT 28/12 A2996 RMK A01 T02800117  RH  037%=      5-min Rain = 0
KBWS 161945Z 07007G14KT 28/12 A2996 RMK A01 T02790116  RH  037%=      5-min Rain = 0
KBWS 161950Z 08007KT 28/12 A2996 RMK A01 T02760115  RH  037%=      5-min Rain = 0
KBWS 161955Z 08008G14KT 28/12 A2996 RMK A01 T02800117  RH  037%=      5-min Rain = 0
KBWS 162000Z 07009KT 28/12 A2996 RMK A01 T02810117  RH  037%=      5-min Rain = 0
KBWS 162005Z 04007G12KT 28/12 A2996 RMK A01 T02810118  RH  037%=      5-min Rain = 0
KBWS 162010Z 07008KT 28/12 A2996 RMK A01 T02810119  RH  037%=      5-min Rain = 0
KBWS 162015Z 06006KT 28/12 A2996 RMK A01 T02810120  RH  038%=      5-min Rain = 0
KBWS 162020Z 08005G10KT 28/12 A2996 RMK A01 T02830120  RH  037%=      5-min Rain = 0
KBWS 162025Z 06005G10KT 29/12 A2995 RMK A01 T02870122  RH  037%=      5-min Rain = 0
KBWS 162030Z 05007KT 28/12 A2995 RMK A01 T02820122  RH  038%=      5-min Rain = 0
KBWS 162035Z 07007G12KT 28/12 A2995 RMK A01 T02800121  RH  038%=      5-min Rain = 0
KBWS 162040Z 06007G13KT 28/12 A2995 RMK A01 T02840123  RH  038%=      5-min Rain = 0
KBWS 162045Z 05006G11KT 29/12 A2995 RMK A01 T02870121  RH  036%=      5-min Rain = 0
KBWS 162050Z 06007G12KT 29/12 A2995 RMK A01 T02870121  RH  036%=      5-min Rain = 0
KBWS 162055Z 05006G12KT 28/12 A2994 RMK A01 T02820121  RH  038%=      5-min Rain = 0
KBWS 162100Z 06007G12KT 28/12 A2994 RMK A01 T02840122  RH  037%=      5-min Rain = 0
KBWS 162105Z 08007KT 29/12 A2994 RMK A01 T02900120  RH  036%=      5-min Rain = 0
KBWS 162110Z 06008KT 29/12 A2994 RMK A01 T02900119  RH  035%=      5-min Rain = 0
KBWS 162115Z 06005KT 29/12 A2994 RMK A01 T02910116  RH  035%=      5-min Rain = 0
KBWS 162120Z 05010KT 29/12 A2993 RMK A01 T02930118  RH  035%=      5-min Rain = 0
KBWS 162125Z 05007G12KT 29/12 A2993 RMK A01 T02900116  RH  035%=      5-min Rain = 0
KBWS 162130Z 04007KT 29/12 A2993 RMK A01 T02910116  RH  035%=      5-min Rain = 0
KBWS 162135Z 05005G11KT 29/12 A2993 RMK A01 T02890115  RH  035%=      5-min Rain = 0
KBWS 162140Z 12006KT 29/11 A2993 RMK A01 T02940113  RH  033%=      5-min Rain = 0
KBWS 162145Z 09007KT 30/12 A2993 RMK A01 T02950116  RH  034%=      5-min Rain = 0
KBWS 162150Z 06007G12KT 29/12 A2993 RMK A01 T02930116  RH  034%=      5-min Rain = 0
KBWS 162155Z 05008G13KT 29/12 A2993 RMK A01 T02920118  RH  035%=      5-min Rain = 0
KBWS 162200Z 03005KT 29/12 A2993 RMK A01 T02920118  RH  035%=      5-min Rain = 0
KBWS 162205Z 08004KT 30/12 A2992 RMK A01 T02950119  RH  034%=      5-min Rain = 0
KBWS 162210Z 07006KT 29/12 A2992 RMK A01 T02940120  RH  035%=      5-min Rain = 0
KBWS 162215Z 04008G14KT 30/12 A2992 RMK A01 T02950119  RH  034%=      5-min Rain = 0
KBWS 162220Z 05003KT 29/11 A2992 RMK A01 T02930113  RH  033%=      5-min Rain = 0
KBWS 162225Z 05009G16KT 30/11 A2992 RMK A01 T02960113  RH  033%=      5-min Rain = 0
KBWS 162230Z 05009G14KT 30/11 A2992 RMK A01 T02960111  RH  032%=      5-min Rain = 0
KBWS 162235Z 03007KT 30/11 A2992 RMK A01 T02970110  RH  032%=      5-min Rain = 0
KBWS 162240Z 05008KT 30/11 A2992 RMK A01 T02970112  RH  032%=      5-min Rain = 0
KBWS 162245Z 03005KT 29/11 A2992 RMK A01 T02940107  RH  032%=      5-min Rain = 0
KBWS 162250Z 07007G13KT 29/11 A2992 RMK A01 T02940106  RH  032%=      5-min Rain = 0
KBWS 162255Z 08007KT 30/11 A2991 RMK A01 T02990108  RH  031%=      5-min Rain = 0
KBWS 162300Z 06008KT 30/11 A2991 RMK A01 T02970108  RH  032%=      5-min Rain = 0
KBWS 162305Z 06006G11KT 30/11 A2991 RMK A01 T02960110  RH  032%=      5-min Rain = 0
KBWS 162310Z 07005KT 30/11 A2991 RMK A01 T02960108  RH  032%=      5-min Rain = 0
KBWS 162315Z 07009KT 30/11 A2991 RMK A01 T02980108  RH  031%=      5-min Rain = 0
KBWS 162320Z 07009KT 30/11 A2991 RMK A01 T03000107  RH  031%=      5-min Rain = 0
KBWS 162325Z 04010KT 30/11 A2991 RMK A01 T02990107  RH  031%=      5-min Rain = 0
KBWS 162330Z 03008KT 30/10 A2991 RMK A01 T03000104  RH  030%=      5-min Rain = 0
KBWS 162335Z 02005KT 30/10 A2991 RMK A01 T02980104  RH  031%=      5-min Rain = 0
KBWS 162340Z 06006KT 30/11 A2991 RMK A01 T02980110  RH  032%=      5-min Rain = 0
KBWS 162345Z 07006G11KT 30/11 A299 RMK A01 T02970106  RH  031%=      5-min Rain = 0
KBWS 162350Z 05006G12KT 30/10 A299 RMK A01 T02980103  RH  030%=      5-min Rain = 0
KBWS 162355Z 05010KT 30/10 A299 RMK A01 T02970101  RH  030%=      5-min Rain = 0
KBWS 170000Z 05007G12KT 30/10 A2991 RMK A01 T02950100  RH  030%=      5-min Rain = 0
KBWS 170005Z 06004KT 30/10 A2991 RMK A01 T02960099  RH  030%=      5-min Rain = 0
KBWS 170010Z 06007G13KT 30/10 A2991 RMK A01 T02960101  RH  030%=      5-min Rain = 0
KBWS 170015Z 06008G13KT 30/10 A2991 RMK A01 T02960103  RH  031%=      5-min Rain = 0
KBWS 170020Z 07007KT 29/10 A2991 RMK A01 T02940102  RH  031%=      5-min Rain = 0
KBWS 170025Z 08007KT 29/10 A2991 RMK A01 T02940102  RH  031%=      5-min Rain = 0
KBWS 170030Z 07008KT 29/11 A2991 RMK A01 T02930107  RH  032%=      5-min Rain = 0
KBWS 170035Z 07009KT 29/10 A2991 RMK A01 T02920104  RH  032%=      5-min Rain = 0
KBWS 170040Z 07007KT 29/10 A2992 RMK A01 T02920104  RH  032%=      5-min Rain = 0
KBWS 170045Z 06008KT 29/11 A2992 RMK A01 T02910108  RH  033%=      5-min Rain = 0
KBWS 170050Z 08009KT 29/10 A2992 RMK A01 T02900103  RH  032%=      5-min Rain = 0
KBWS 170055Z 08008KT 29/10 A2992 RMK A01 T02890104  RH  032%=      5-min Rain = 0
KBWS 170100Z 08008KT 29/10 A2992 RMK A01 T02880103  RH  032%=      5-min Rain = 0
KBWS 170105Z 09009KT 29/10 A2992 RMK A01 T02860104  RH  033%=      5-min Rain = 0
KBWS 170110Z 08008KT 29/11 A2992 RMK A01 T02850105  RH  033%=      5-min Rain = 0
KBWS 170115Z 09008KT 28/10 A2992 RMK A01 T02840104  RH  033%=      5-min Rain = 0
KBWS 170120Z 09008KT 28/10 A2993 RMK A01 T02840101  RH  033%=      5-min Rain = 0
KBWS 170125Z 08008KT 28/10 A2993 RMK A01 T02800104  RH  034%=      5-min Rain = 0
KBWS 170130Z 09008KT 28/10 A2993 RMK A01 T02770103  RH  034%=      5-min Rain = 0
KBWS 170135Z 08007KT 28/10 A2993 RMK A01 T02750104  RH  035%=      5-min Rain = 0
KBWS 170140Z 08007KT 27/11 A2993 RMK A01 T02690105  RH  036%=      5-min Rain = 0
KBWS 170145Z 08006KT 27/11 A2993 RMK A01 T02660105  RH  037%=      5-min Rain = 0
KBWS 170150Z 08005KT 26/11 A2993 RMK A01 T02630106  RH  038%=      5-min Rain = 0
KBWS 170155Z 08005KT 26/11 A2993 RMK A01 T02590108  RH  039%=      5-min Rain = 0
KBWS 170200Z 08006KT 25/11 A2993 RMK A01 T02540107  RH  040%=      5-min Rain = 0
KBWS 170205Z 08005KT 25/11 A2993 RMK A01 T02520107  RH  041%=      5-min Rain = 0
KBWS 170210Z 08006KT 25/11 A2993 RMK A01 T02490108  RH  042%=      5-min Rain = 0
KBWS 170215Z 09006KT 25/11 A2993 RMK A01 T02480108  RH  042%=      5-min Rain = 0
KBWS 170220Z 09006KT 25/11 A2993 RMK A01 T02470107  RH  042%=      5-min Rain = 0
KBWS 170225Z 10006KT 25/11 A2993 RMK A01 T02470109  RH  043%=      5-min Rain = 0
KBWS 170230Z 10006KT 24/11 A2993 RMK A01 T02420112  RH  045%=      5-min Rain = 0
KBWS 170235Z 10007KT 24/12 A2993 RMK A01 T02400115  RH  046%=      5-min Rain = 0
KBWS 170240Z 10007KT 24/12 A2994 RMK A01 T02400117  RH  047%=      5-min Rain = 0
KBWS 170245Z 09006KT 24/12 A2994 RMK A01 T02380119  RH  048%=      5-min Rain = 0
KBWS 170250Z 08006KT 24/12 A2994 RMK A01 T02360122  RH  050%=      5-min Rain = 0
KBWS 170255Z 09006KT 23/12 A2994 RMK A01 T02330122  RH  051%=      5-min Rain = 0
KBWS 170300Z 08007KT 23/12 A2994 RMK A01 T02320122  RH  051%=      5-min Rain = 0
KBWS 170305Z 07008KT 24/13 A2995 RMK A01 T02350127  RH  052%=      5-min Rain = 0
KBWS 170310Z 08011KT 24/13 A2995 RMK A01 T02360128  RH  052%=      5-min Rain = 0
KBWS 170315Z 08010KT 24/13 A2995 RMK A01 T02360129  RH  052%=      5-min Rain = 0
KBWS 170320Z 08011KT 24/13 A2995 RMK A01 T02350129  RH  052%=      5-min Rain = 0
KBWS 170325Z 08010KT 23/13 A2996 RMK A01 T02340131  RH  054%=      5-min Rain = 0
KBWS 170330Z 08010KT 23/13 A2996 RMK A01 T02320134  RH  055%=      5-min Rain = 0
KBWS 170335Z 08010KT 23/14 A2996 RMK A01 T02300135  RH  056%=      5-min Rain = 0
KBWS 170340Z 08009KT 23/14 A2997 RMK A01 T02280136  RH  057%=      5-min Rain = 0
KBWS 170345Z 08009KT 23/14 A2997 RMK A01 T02270136  RH  058%=      5-min Rain = 0
KBWS 170350Z 08009KT 23/14 A2997 RMK A01 T02250137  RH  059%=      5-min Rain = 0
KBWS 170355Z 08009KT 23/14 A2997 RMK A01 T02250138  RH  059%=      5-min Rain = 0
KBWS 170400Z 09010KT 23/14 A2997 RMK A01 T02250139  RH  059%=      5-min Rain = 0
KBWS 170405Z 09010KT 23/14 A2997 RMK A01 T02250140  RH  060%=      5-min Rain = 0
KBWS 170410Z 08009KT 22/14 A2997 RMK A01 T02240141  RH  061%=      5-min Rain = 0
KBWS 170415Z 08009KT 22/14 A2997 RMK A01 T02220141  RH  061%=      5-min Rain = 0
KBWS 170420Z 08009KT 22/14 A2998 RMK A01 T02210141  RH  062%=      5-min Rain = 0
KBWS 170425Z 09010G15KT 22/14 A2998 RMK A01 T02200141  RH  062%=      5-min Rain = 0
KBWS 170430Z 09011KT 22/14 A2998 RMK A01 T02210142  RH  062%=      5-min Rain = 0
KBWS 170435Z 09011KT 22/14 A2998 RMK A01 T02200142  RH  062%=      5-min Rain = 0
KBWS 170440Z 10010KT 22/14 A2998 RMK A01 T02190142  RH  063%=      5-min Rain = 0
KBWS 170445Z 09010KT 22/14 A2998 RMK A01 T02180142  RH  063%=      5-min Rain = 0
KBWS 170450Z 09010KT 22/14 A2998 RMK A01 T02180143  RH  064%=      5-min Rain = 0
KBWS 170455Z 10011KT 22/14 A2999 RMK A01 T02170143  RH  064%=      5-min Rain = 0

Page generated in 0.0154 seconds.